createdAt,value
2019-01-23T00:00:13.531Z,37.50
2019-01-23T00:02:44.007Z,37.87
2019-01-23T00:05:12.807Z,37.90
2019-01-23T00:07:41.621Z,37.83
2019-01-23T00:10:10.433Z,36.87
2019-01-23T00:12:39.245Z,38.60
2019-01-23T00:15:08.137Z,38.17
2019-01-23T00:17:38.024Z,37.67
2019-01-23T00:20:07.997Z,38.93
2019-01-23T00:22:36.864Z,37.60
2019-01-23T00:25:08.161Z,37.37
2019-01-23T00:27:36.960Z,38.83
2019-01-23T00:30:13.602Z,38.57
2019-01-23T00:32:42.436Z,37.70
2019-01-23T00:35:11.247Z,38.23
2019-01-23T00:37:40.072Z,36.27
2019-01-23T00:40:10.348Z,36.37
2019-01-23T00:42:40.131Z,34.90
2019-01-23T00:45:10.232Z,38.77
2019-01-23T00:47:39.034Z,37.43
2019-01-23T00:50:08.908Z,39.70
2019-01-23T00:52:37.726Z,38.27
2019-01-23T00:55:10.498Z,37.63
2019-01-23T00:57:39.344Z,35.37
2019-01-23T01:00:12.715Z,37.23
2019-01-23T01:02:41.729Z,36.50
2019-01-23T01:05:10.538Z,35.73
2019-01-23T01:07:39.350Z,33.03
2019-01-23T01:10:10.082Z,35.87
2019-01-23T01:12:38.894Z,35.90
2019-01-23T01:15:13.317Z,33.73
2019-01-23T01:17:38.315Z,34.23
2019-01-23T01:20:08.300Z,35.63
2019-01-23T01:22:37.105Z,35.20
2019-01-23T01:25:10.578Z,34.63
2019-01-23T01:27:39.379Z,34.57
2019-01-23T01:30:09.804Z,34.77
2019-01-23T01:32:38.804Z,34.80
2019-01-23T01:35:07.607Z,36.53
2019-01-23T01:37:36.420Z,34.87
2019-01-23T01:40:06.927Z,36.57
2019-01-23T01:42:35.740Z,36.00
2019-01-23T01:45:05.928Z,35.17
2019-01-23T01:47:34.811Z,35.60
2019-01-23T01:50:05.367Z,35.27
2019-01-23T01:52:34.187Z,35.43
2019-01-23T01:55:22.447Z,33.70
2019-01-23T01:57:51.924Z,34.63
2019-01-23T02:00:21.804Z,35.77
2019-01-23T02:02:50.711Z,36.70
2019-01-23T02:05:19.564Z,38.63
2019-01-23T02:07:48.376Z,36.60
2019-01-23T02:10:17.985Z,36.90
2019-01-23T02:12:46.863Z,37.63
2019-01-23T02:15:15.683Z,38.33
2019-01-23T02:17:44.545Z,37.00
2019-01-23T02:20:17.841Z,38.47
2019-01-23T02:22:46.743Z,37.80
2019-01-23T02:25:15.556Z,37.93
2019-01-23T02:27:45.427Z,39.00
2019-01-23T02:30:18.024Z,39.47
2019-01-23T02:32:46.848Z,38.17
2019-01-23T02:35:15.652Z,38.90
2019-01-23T02:37:44.500Z,38.80
2019-01-23T02:40:14.565Z,39.07
2019-01-23T02:42:43.373Z,38.23
2019-01-23T02:45:12.198Z,38.40
2019-01-23T02:47:41.073Z,38.37
2019-01-23T02:50:10.353Z,39.53
2019-01-23T02:52:39.187Z,37.80
2019-01-23T02:55:08.762Z,38.60
2019-01-23T02:57:37.579Z,39.30
2019-01-23T03:00:08.379Z,40.40
2019-01-23T03:02:37.253Z,38.60
2019-01-23T03:05:07.734Z,39.07
2019-01-23T03:07:36.578Z,37.20
2019-01-23T03:10:07.113Z,40.23
2019-01-23T03:12:35.920Z,37.13
2019-01-23T03:15:06.584Z,36.67
2019-01-23T03:17:35.464Z,35.87
2019-01-23T03:20:05.885Z,35.87
2019-01-23T03:22:34.735Z,37.10
2019-01-23T03:25:05.118Z,37.43
2019-01-23T03:27:33.921Z,35.97
2019-01-23T03:30:03.881Z,38.00
2019-01-23T03:32:33.748Z,39.47
2019-01-23T03:35:02.621Z,35.17
2019-01-23T03:37:31.485Z,35.20
2019-01-23T03:40:00.305Z,37.97
2019-01-23T03:42:29.101Z,37.03
2019-01-23T03:44:57.926Z,36.70
2019-01-23T03:47:26.739Z,36.60
2019-01-23T03:49:55.543Z,38.20
2019-01-23T03:52:24.363Z,36.93
2019-01-23T03:54:53.167Z,35.63
2019-01-23T03:57:21.980Z,36.80
2019-01-23T03:59:50.908Z,36.83
2019-01-23T04:02:19.713Z,37.27
2019-01-23T04:04:48.584Z,37.90
2019-01-23T04:07:17.421Z,39.70
2019-01-23T04:09:46.256Z,38.87
2019-01-23T04:12:15.053Z,39.63
2019-01-23T04:14:43.864Z,37.97
2019-01-23T04:17:12.687Z,38.87
2019-01-23T04:19:41.557Z,38.63
2019-01-23T04:22:10.368Z,38.40
2019-01-23T04:24:39.219Z,38.13
2019-01-23T04:27:08.986Z,39.70
2019-01-23T04:29:39.723Z,41.17
2019-01-23T04:32:08.343Z,42.10
2019-01-23T04:34:37.143Z,41.57
2019-01-23T04:37:05.952Z,41.17
2019-01-23T04:39:34.792Z,39.13
2019-01-23T04:42:03.611Z,40.77
2019-01-23T04:44:32.435Z,40.20
2019-01-23T04:47:01.287Z,42.00
2019-01-23T04:49:30.080Z,41.87
2019-01-23T04:52:09.818Z,45.27
2019-01-23T04:54:38.656Z,41.90
2019-01-23T04:57:07.466Z,41.93
2019-01-23T04:59:36.307Z,44.00
2019-01-23T05:02:05.113Z,42.90
2019-01-23T05:04:34.884Z,42.77
2019-01-23T05:07:03.736Z,42.23
2019-01-23T05:09:32.546Z,42.93
2019-01-23T05:12:01.401Z,40.57
2019-01-23T05:14:30.254Z,41.70
2019-01-23T05:16:59.054Z,44.07
2019-01-23T05:19:27.877Z,42.67
2019-01-23T05:21:56.732Z,45.13
2019-01-23T05:24:25.547Z,44.37
2019-01-23T05:26:54.359Z,44.27
2019-01-23T05:29:23.180Z,44.60
2019-01-23T05:31:52.001Z,45.93
2019-01-23T05:34:20.884Z,45.03
2019-01-23T05:36:49.699Z,46.23
2019-01-23T05:39:18.511Z,46.00
2019-01-23T05:41:47.351Z,44.73
2019-01-23T05:44:16.163Z,44.00
2019-01-23T05:46:44.974Z,45.43
2019-01-23T05:49:13.808Z,45.23
2019-01-23T05:51:42.611Z,44.37
2019-01-23T05:54:11.412Z,45.80
2019-01-23T05:56:40.255Z,46.70
2019-01-23T05:59:09.053Z,44.67
2019-01-23T06:01:37.860Z,44.57
2019-01-23T06:04:06.728Z,42.00
2019-01-23T06:06:35.537Z,41.27
2019-01-23T06:09:06.218Z,40.50
2019-01-23T06:11:35.054Z,41.73
2019-01-23T06:14:04.229Z,41.53
2019-01-23T06:16:33.061Z,43.53
2019-01-23T06:19:01.953Z,39.33
2019-01-23T06:21:30.760Z,40.47
2019-01-23T06:23:59.570Z,40.90
2019-01-23T06:26:28.413Z,40.17
2019-01-23T06:28:57.213Z,42.63
2019-01-23T06:31:26.020Z,41.53
2019-01-23T06:33:54.864Z,40.67
2019-01-23T06:36:23.672Z,41.07
2019-01-23T06:38:52.478Z,42.03
2019-01-23T06:41:21.313Z,41.67
2019-01-23T06:43:50.146Z,43.13
2019-01-23T06:46:18.996Z,42.03
2019-01-23T06:48:47.901Z,42.30
2019-01-23T06:51:16.700Z,41.97
2019-01-23T06:53:45.518Z,41.23
2019-01-23T06:56:14.379Z,41.27
2019-01-23T06:58:43.192Z,38.50
2019-01-23T07:01:11.996Z,41.70
2019-01-23T07:03:40.861Z,37.73
2019-01-23T07:06:09.712Z,38.17
2019-01-23T07:08:38.558Z,36.97
2019-01-23T07:11:07.378Z,37.27
2019-01-23T07:13:36.176Z,37.17
2019-01-23T07:16:04.982Z,38.97
2019-01-23T07:18:33.823Z,39.17
2019-01-23T07:21:02.631Z,35.57
2019-01-23T07:23:31.441Z,36.57
2019-01-23T07:26:00.269Z,35.80
2019-01-23T07:28:29.089Z,35.23
2019-01-23T07:30:57.901Z,36.27
2019-01-23T07:33:26.755Z,36.10
2019-01-23T07:35:55.569Z,36.80
2019-01-23T07:38:24.377Z,36.40
2019-01-23T07:40:53.221Z,35.03
2019-01-23T07:43:22.049Z,34.37
2019-01-23T07:45:50.923Z,34.47
2019-01-23T07:48:19.781Z,31.23
2019-01-23T07:50:48.593Z,30.87
2019-01-23T07:53:17.406Z,32.73
2019-01-23T07:55:46.232Z,32.53
2019-01-23T07:58:15.043Z,33.27
2019-01-23T08:00:43.856Z,33.30
2019-01-23T08:03:12.944Z,34.17
2019-01-23T08:05:41.754Z,34.13
2019-01-23T08:08:10.572Z,36.13
2019-01-23T08:10:39.396Z,34.03
2019-01-23T08:13:08.225Z,32.17
2019-01-23T08:15:37.088Z,34.60
2019-01-23T08:18:05.922Z,34.13
2019-01-23T08:20:34.724Z,35.87
2019-01-23T08:23:03.536Z,37.07
2019-01-23T08:25:32.376Z,37.20
2019-01-23T08:28:01.184Z,38.57
2019-01-23T08:30:29.994Z,37.10
2019-01-23T08:32:58.833Z,37.70
2019-01-23T08:35:27.639Z,36.40
2019-01-23T08:37:56.462Z,35.20
2019-01-23T08:40:25.316Z,34.37
2019-01-23T08:42:54.124Z,36.73
2019-01-23T08:45:22.933Z,36.17
2019-01-23T08:47:51.765Z,36.97
2019-01-23T08:50:33.838Z,36.13
2019-01-23T08:53:03.631Z,37.20
2019-01-23T08:55:32.436Z,34.47
2019-01-23T08:58:01.246Z,35.77
2019-01-23T09:00:30.065Z,38.40
2019-01-23T09:02:58.882Z,38.00
2019-01-23T09:05:27.700Z,36.40
2019-01-23T09:07:56.550Z,37.50
2019-01-23T09:10:26.970Z,38.00
2019-01-23T09:12:55.783Z,37.47
2019-01-23T09:15:24.591Z,37.93
2019-01-23T09:17:53.468Z,38.80
2019-01-23T09:20:22.504Z,40.63
2019-01-23T09:22:51.441Z,42.30
2019-01-23T09:25:24.539Z,40.03
2019-01-23T09:27:53.440Z,39.13
2019-01-23T09:30:36.185Z,40.37
2019-01-23T09:33:15.472Z,37.80
2019-01-23T09:35:46.115Z,38.50
2019-01-23T09:38:16.559Z,41.53
2019-01-23T09:40:46.993Z,39.27
2019-01-23T09:43:20.102Z,38.97
2019-01-23T09:45:56.388Z,37.57
2019-01-23T09:48:43.656Z,38.77
2019-01-23T09:51:29.444Z,39.57
2019-01-23T09:54:02.649Z,36.87
2019-01-23T09:56:31.472Z,34.80
2019-01-23T09:59:02.739Z,36.57
2019-01-23T10:01:30.841Z,39.87
2019-01-23T10:03:59.749Z,36.53
2019-01-23T10:06:28.572Z,37.97
2019-01-23T10:08:57.466Z,37.37
2019-01-23T10:11:26.281Z,38.23
2019-01-23T10:13:55.084Z,39.00
2019-01-23T10:16:23.903Z,40.13
2019-01-23T10:18:56.151Z,41.27
2019-01-23T10:21:23.274Z,37.47
2019-01-23T10:23:52.128Z,39.27
2019-01-23T10:26:20.936Z,40.30
2019-01-23T10:28:49.743Z,40.27
2019-01-23T10:31:18.575Z,40.73
2019-01-23T10:33:47.386Z,41.00
2019-01-23T10:36:16.190Z,39.93
2019-01-23T10:38:45.092Z,40.90
2019-01-23T10:41:13.899Z,40.23
2019-01-23T10:43:42.776Z,38.47
2019-01-23T10:46:11.583Z,40.17
2019-01-23T10:48:40.453Z,39.57
2019-01-23T10:51:09.252Z,40.20
2019-01-23T10:53:38.094Z,40.93
2019-01-23T10:56:06.919Z,38.37
2019-01-23T10:58:35.795Z,37.93
2019-01-23T11:01:04.660Z,38.30
2019-01-23T11:03:33.586Z,38.10
2019-01-23T11:06:02.385Z,38.47
2019-01-23T11:08:31.232Z,40.30
2019-01-23T11:11:00.106Z,39.07
2019-01-23T11:13:29.479Z,35.40
2019-01-23T11:15:58.374Z,37.13
2019-01-23T11:18:27.172Z,36.10
2019-01-23T11:20:55.980Z,36.33
2019-01-23T11:23:24.861Z,36.67
2019-01-23T11:25:53.768Z,34.67
2019-01-23T11:28:22.569Z,37.87
2019-01-23T11:30:51.368Z,40.47
2019-01-23T11:33:20.211Z,40.20
2019-01-23T11:35:49.384Z,39.50
2019-01-23T11:38:18.331Z,38.70
2019-01-23T11:40:49.749Z,39.27
2019-01-23T11:43:18.612Z,39.20
2019-01-23T11:45:47.496Z,37.73
2019-01-23T11:48:16.368Z,38.47
2019-01-23T11:50:45.243Z,40.57
2019-01-23T11:53:14.153Z,40.10
2019-01-23T11:55:42.957Z,38.13
2019-01-23T11:58:11.764Z,38.03
2019-01-23T12:00:40.603Z,36.23
2019-01-23T12:03:09.418Z,38.80
2019-01-23T12:05:38.219Z,38.07
2019-01-23T12:08:07.067Z,36.40
2019-01-23T12:10:35.865Z,37.77
2019-01-23T12:13:04.737Z,36.73
2019-01-23T12:15:33.596Z,37.00
2019-01-23T12:18:02.462Z,36.70
2019-01-23T12:20:31.344Z,36.37
2019-01-23T12:23:00.233Z,36.20
2019-01-23T12:25:29.064Z,36.63
2019-01-23T12:27:57.931Z,35.60
2019-01-23T12:30:28.020Z,35.03
2019-01-23T12:32:57.897Z,36.13
2019-01-23T12:35:26.707Z,36.50
2019-01-23T12:37:56.588Z,35.57
2019-01-23T12:40:25.404Z,37.30
2019-01-23T12:42:54.236Z,38.13
2019-01-23T12:45:24.246Z,36.87
2019-01-23T12:47:53.048Z,34.07
2019-01-23T12:50:27.248Z,35.73
2019-01-23T12:52:56.061Z,34.43
2019-01-23T12:55:24.871Z,36.17
2019-01-23T12:57:53.719Z,35.87
2019-01-23T13:00:24.227Z,36.27
2019-01-23T13:02:53.038Z,35.53
2019-01-23T13:05:22.223Z,35.43
2019-01-23T13:07:51.096Z,34.37
2019-01-23T13:10:21.844Z,37.23
2019-01-23T13:12:50.849Z,36.20
2019-01-23T13:15:20.624Z,35.17
2019-01-23T13:17:49.439Z,34.50
2019-01-23T13:20:19.224Z,34.40
2019-01-23T13:22:48.026Z,37.53
2019-01-23T13:25:17.800Z,35.63
2019-01-23T13:27:46.670Z,35.87
2019-01-23T13:30:16.639Z,33.17
2019-01-23T13:32:45.448Z,35.27
2019-01-23T13:35:15.566Z,33.17
2019-01-23T13:37:44.363Z,34.07
2019-01-23T13:40:17.830Z,33.47
2019-01-23T13:42:46.747Z,33.07
2019-01-23T13:45:15.567Z,33.13
2019-01-23T13:47:44.483Z,35.03
2019-01-23T13:50:13.761Z,34.03
2019-01-23T13:52:42.633Z,33.07
2019-01-23T13:55:15.614Z,34.40
2019-01-23T13:57:44.426Z,32.93
2019-01-23T14:00:24.023Z,33.77
2019-01-23T14:02:52.818Z,33.17
2019-01-23T14:05:21.630Z,34.33
2019-01-23T14:07:50.475Z,33.33
2019-01-23T14:10:19.289Z,32.57
2019-01-23T14:12:48.170Z,35.00
2019-01-23T14:15:24.620Z,33.87
2019-01-23T14:17:53.408Z,33.40
2019-01-23T14:20:22.214Z,32.87
2019-01-23T14:22:51.200Z,33.37
2019-01-23T14:25:20.000Z,35.10
2019-01-23T14:27:48.805Z,33.53
2019-01-23T14:30:25.302Z,34.73
2019-01-23T14:32:54.086Z,34.43
2019-01-23T14:35:22.896Z,32.63
2019-01-23T14:37:52.032Z,32.67
2019-01-23T14:40:20.828Z,34.90
2019-01-23T14:42:49.635Z,34.53
2019-01-23T14:45:18.746Z,34.73
2019-01-23T14:47:47.550Z,34.00
2019-01-23T14:50:17.994Z,31.07
2019-01-23T14:52:47.756Z,33.80
2019-01-23T14:55:16.576Z,33.73
2019-01-23T14:57:45.376Z,33.63
2019-01-23T15:00:20.327Z,32.23
2019-01-23T15:02:49.131Z,32.77
2019-01-23T15:05:18.018Z,32.70
2019-01-23T15:07:46.835Z,33.00
2019-01-23T15:10:19.719Z,30.80
2019-01-23T15:12:48.529Z,32.67
2019-01-23T15:15:17.616Z,33.50
2019-01-23T15:17:46.415Z,32.77
2019-01-23T15:20:22.099Z,33.80
2019-01-23T15:22:50.971Z,33.17
2019-01-23T15:25:19.778Z,34.77
2019-01-23T15:27:48.611Z,35.83
2019-01-23T15:30:18.585Z,31.50
2019-01-23T15:32:47.392Z,33.03
2019-01-23T15:35:16.515Z,35.03
2019-01-23T15:37:45.345Z,34.63
2019-01-23T15:40:21.357Z,35.27
2019-01-23T15:42:50.227Z,33.67
2019-01-23T15:45:19.035Z,35.23
2019-01-23T15:47:47.891Z,33.27
2019-01-23T15:50:19.033Z,35.20
2019-01-23T15:52:48.084Z,37.57
2019-01-23T15:55:18.027Z,33.50
2019-01-23T15:57:46.883Z,34.83
2019-01-23T16:00:17.131Z,35.47
2019-01-23T16:02:45.943Z,34.53
2019-01-23T16:05:14.764Z,35.57
2019-01-23T16:07:43.565Z,36.10
2019-01-23T16:10:13.958Z,35.53
2019-01-23T16:12:42.760Z,34.93
2019-01-23T16:15:13.036Z,36.67
2019-01-23T16:17:41.987Z,36.47
2019-01-23T16:20:11.560Z,37.03
2019-01-23T16:22:40.372Z,36.70
2019-01-23T16:25:10.594Z,36.60
2019-01-23T16:27:39.404Z,37.23
2019-01-23T16:30:09.890Z,36.03
2019-01-23T16:32:38.872Z,37.27
2019-01-23T16:35:08.739Z,38.33
2019-01-23T16:37:37.949Z,37.63
2019-01-23T16:40:07.972Z,37.50
2019-01-23T16:42:37.851Z,39.83
2019-01-23T16:45:08.010Z,38.13
2019-01-23T16:47:37.913Z,37.53
2019-01-23T16:50:08.347Z,36.70
2019-01-23T16:52:37.153Z,36.93
2019-01-23T16:55:07.051Z,38.33
2019-01-23T16:57:35.952Z,36.57
2019-01-23T17:00:06.435Z,37.00
2019-01-23T17:02:38.778Z,37.17
2019-01-23T17:05:09.348Z,39.00
2019-01-23T17:07:38.265Z,36.73
2019-01-23T17:10:08.691Z,37.37
2019-01-23T17:12:37.495Z,37.23
2019-01-23T17:15:07.357Z,35.20
2019-01-23T17:17:36.225Z,36.30
2019-01-23T17:20:06.723Z,37.00
2019-01-23T17:22:35.592Z,36.90
2019-01-23T17:25:07.024Z,37.30
2019-01-23T17:27:35.909Z,36.63
2019-01-23T17:30:06.375Z,37.17
2019-01-23T17:32:35.448Z,38.97
2019-01-23T17:35:05.837Z,36.27
2019-01-23T17:37:34.727Z,35.80
2019-01-23T17:40:05.065Z,37.77
2019-01-23T17:42:36.823Z,38.17
2019-01-23T17:45:07.249Z,39.50
2019-01-23T17:47:38.865Z,34.83
2019-01-23T17:50:10.474Z,36.87
2019-01-23T17:52:39.283Z,34.00
2019-01-23T17:55:09.761Z,35.00
2019-01-23T17:57:38.555Z,35.33
2019-01-23T18:00:09.069Z,33.77
2019-01-23T18:02:37.994Z,35.40
2019-01-23T18:05:06.978Z,35.47
2019-01-23T18:07:35.842Z,33.90
2019-01-23T18:10:05.932Z,35.60
2019-01-23T18:12:34.731Z,33.97
2019-01-23T18:15:04.818Z,32.57
2019-01-23T18:17:33.672Z,34.20
2019-01-23T18:20:02.550Z,34.03
2019-01-23T18:22:31.355Z,32.10
2019-01-23T18:25:00.249Z,33.43
2019-01-23T18:27:29.136Z,33.87
2019-01-23T18:29:58.013Z,33.37
2019-01-23T18:32:27.935Z,35.30
2019-01-23T18:35:01.410Z,34.03
2019-01-23T18:37:32.970Z,34.07
2019-01-23T18:40:03.391Z,33.87
2019-01-23T18:42:39.712Z,35.13
2019-01-23T18:45:10.324Z,35.10
2019-01-23T18:47:50.171Z,36.40
2019-01-23T18:50:32.542Z,34.57
2019-01-23T18:53:01.458Z,35.40
2019-01-23T18:55:30.273Z,34.70
2019-01-23T18:57:59.154Z,35.80
2019-01-23T19:00:28.051Z,36.40
2019-01-23T19:02:56.923Z,36.50
2019-01-23T19:05:25.805Z,37.50
2019-01-23T19:07:54.639Z,34.33
2019-01-23T19:10:23.450Z,33.63
2019-01-23T19:12:52.248Z,35.10
2019-01-23T19:15:21.085Z,35.37
2019-01-23T19:17:49.894Z,36.93
2019-01-23T19:20:19.775Z,35.43
2019-01-23T19:22:48.621Z,36.17
2019-01-23T19:25:17.441Z,36.20
2019-01-23T19:27:46.303Z,36.43
2019-01-23T19:30:16.633Z,37.07
2019-01-23T19:32:45.830Z,38.80
2019-01-23T19:35:15.093Z,35.93
2019-01-23T19:37:43.984Z,37.57
2019-01-23T19:40:12.791Z,35.47
2019-01-23T19:42:41.700Z,36.47
2019-01-23T19:45:12.211Z,35.67
2019-01-23T19:47:41.151Z,36.10
2019-01-23T19:50:11.929Z,37.17
2019-01-23T19:52:40.871Z,36.90
2019-01-23T19:55:11.259Z,38.33
2019-01-23T19:57:41.279Z,38.20
2019-01-23T20:00:11.565Z,38.33
2019-01-23T20:02:40.585Z,35.57
2019-01-23T20:05:11.392Z,38.73
2019-01-23T20:07:40.318Z,37.93
2019-01-23T20:10:14.413Z,36.93
2019-01-23T20:12:41.362Z,38.27
2019-01-23T20:15:11.819Z,37.60
2019-01-23T20:17:40.772Z,38.37
2019-01-23T20:20:10.905Z,37.90
2019-01-23T20:22:39.722Z,38.40
2019-01-23T20:25:10.153Z,35.77
2019-01-23T20:27:39.172Z,39.30
2019-01-23T20:30:15.874Z,39.77
2019-01-23T20:32:44.714Z,37.67
2019-01-23T20:35:13.934Z,37.90
2019-01-23T20:37:43.643Z,39.70
2019-01-23T20:40:13.659Z,39.93
2019-01-23T20:42:43.240Z,37.80
2019-01-23T20:45:14.790Z,38.83
2019-01-23T20:47:43.620Z,37.13
2019-01-23T20:50:14.091Z,38.47
2019-01-23T20:52:42.905Z,38.77
2019-01-23T20:55:11.746Z,38.23
2019-01-23T20:57:40.548Z,37.67
2019-01-23T21:00:10.987Z,38.37
2019-01-23T21:02:39.831Z,38.67
2019-01-23T21:05:08.643Z,38.00
2019-01-23T21:07:37.452Z,37.97
2019-01-23T21:10:19.468Z,38.27
2019-01-23T21:12:48.294Z,38.57
2019-01-23T21:15:18.379Z,37.53
2019-01-23T21:17:48.308Z,37.60
2019-01-23T21:20:17.332Z,38.70
2019-01-23T21:22:46.191Z,38.13
2019-01-23T21:25:15.111Z,38.20
2019-01-23T21:27:44.485Z,39.03
2019-01-23T21:30:14.922Z,38.30
2019-01-23T21:32:43.759Z,36.43
2019-01-23T21:35:12.847Z,36.47
2019-01-23T21:37:41.726Z,39.23
2019-01-23T21:40:17.712Z,37.93
2019-01-23T21:42:46.547Z,39.33
2019-01-23T21:45:15.925Z,36.40
2019-01-23T21:47:46.404Z,38.43
2019-01-23T21:50:16.173Z,37.73
2019-01-23T21:52:44.992Z,38.60
2019-01-23T21:55:17.934Z,38.30
2019-01-23T21:57:46.868Z,38.53
2019-01-23T22:00:26.398Z,38.27
2019-01-23T22:02:56.061Z,37.77
2019-01-23T22:05:24.906Z,39.17
2019-01-23T22:07:53.745Z,37.73
2019-01-23T22:10:22.543Z,36.50
2019-01-23T22:12:51.350Z,38.00
2019-01-23T22:15:21.380Z,37.20
2019-01-23T22:17:50.183Z,38.57
2019-01-23T22:20:19.659Z,37.77
2019-01-23T22:22:48.518Z,38.43
2019-01-23T22:25:17.989Z,37.80
2019-01-23T22:27:46.790Z,37.07
2019-01-23T22:30:16.804Z,37.57
2019-01-23T22:32:58.939Z,38.27
2019-01-23T22:35:27.777Z,35.63
2019-01-23T22:37:56.571Z,37.67
2019-01-23T22:40:25.378Z,36.77
2019-01-23T22:42:54.224Z,35.27
2019-01-23T22:45:23.024Z,36.60
2019-01-23T22:47:51.837Z,34.20
2019-01-23T22:50:21.629Z,33.77
2019-01-23T22:52:50.461Z,32.53
2019-01-23T22:55:19.329Z,34.00
2019-01-23T22:57:48.169Z,34.43
2019-01-23T23:00:18.602Z,34.40
2019-01-23T23:02:49.045Z,34.17
2019-01-23T23:05:17.843Z,34.83
2019-01-23T23:07:46.696Z,32.87
2019-01-23T23:10:15.489Z,32.87
2019-01-23T23:12:44.306Z,33.93
2019-01-23T23:15:13.130Z,35.40
2019-01-23T23:17:41.934Z,35.63
2019-01-23T23:20:11.883Z,34.23
2019-01-23T23:22:40.811Z,33.20
2019-01-23T23:25:09.781Z,33.27
2019-01-23T23:27:39.459Z,32.27
2019-01-23T23:30:10.189Z,34.60
2019-01-23T23:32:39.024Z,33.43
2019-01-23T23:35:07.859Z,35.50
2019-01-23T23:37:36.659Z,33.27
2019-01-23T23:40:07.088Z,33.97
2019-01-23T23:42:35.899Z,34.57
2019-01-23T23:45:06.347Z,33.93
2019-01-23T23:47:35.175Z,34.13
2019-01-23T23:50:05.255Z,34.53
2019-01-23T23:52:34.069Z,35.43
2019-01-23T23:55:02.917Z,34.33
2019-01-23T23:57:31.719Z,33.40
